createdAt,value
2024-02-09T00:00:09.235Z,3.78
2024-02-09T00:02:37.380Z,3.81
2024-02-09T00:05:07.011Z,3.84
2024-02-09T00:07:33.863Z,3.87
2024-02-09T00:10:00.712Z,3.90
2024-02-09T00:12:27.438Z,3.93
2024-02-09T00:14:54.104Z,3.96
2024-02-09T00:17:21.675Z,3.97
2024-02-09T00:19:48.383Z,4.00
2024-02-09T00:22:15.247Z,4.03
2024-02-09T00:24:43.565Z,4.05
2024-02-09T00:27:10.742Z,4.08
2024-02-09T00:29:37.835Z,4.12
2024-02-09T00:32:05.723Z,4.15
2024-02-09T00:34:36.327Z,4.20
2024-02-09T00:37:03.277Z,4.24
2024-02-09T00:39:34.662Z,4.26
2024-02-09T00:42:03.433Z,4.28
2024-02-09T00:44:30.397Z,4.33
2024-02-09T00:46:57.533Z,4.36
2024-02-09T00:49:24.149Z,4.37
2024-02-09T00:51:54.857Z,4.37
2024-02-09T00:54:22.660Z,4.40
2024-02-09T00:56:49.855Z,4.42
2024-02-09T00:59:20.071Z,4.43
2024-02-09T01:01:54.313Z,4.45
2024-02-09T01:04:28.933Z,4.49
2024-02-09T01:06:56.700Z,4.51
2024-02-09T01:09:26.434Z,4.55
2024-02-09T01:11:53.166Z,4.57
2024-02-09T01:14:38.505Z,4.59
2024-02-09T01:17:23.944Z,4.62
2024-02-09T01:20:10.429Z,4.66
2024-02-09T01:22:55.485Z,4.69
2024-02-09T01:25:41.097Z,4.71
2024-02-09T01:28:26.605Z,4.74
2024-02-09T01:31:11.571Z,4.79
2024-02-09T01:33:57.116Z,4.82
2024-02-09T01:36:42.405Z,4.87
2024-02-09T01:39:27.591Z,4.92
2024-02-09T01:42:13.270Z,4.96
2024-02-09T01:44:58.500Z,5.01
2024-02-09T01:47:44.072Z,5.04
2024-02-09T01:50:29.985Z,5.07
2024-02-09T01:53:16.601Z,5.11
2024-02-09T01:56:02.142Z,5.12
2024-02-09T01:58:47.357Z,5.12
2024-02-09T02:01:34.019Z,5.12
2024-02-09T02:04:20.080Z,5.13
2024-02-09T02:07:06.115Z,5.14
2024-02-09T02:09:51.206Z,5.17
2024-02-09T02:12:36.852Z,5.20
2024-02-09T02:15:22.354Z,5.24
2024-02-09T02:18:07.924Z,5.27
2024-02-09T02:20:53.201Z,5.31
2024-02-09T02:23:49.412Z,5.34
2024-02-09T02:26:35.005Z,5.37
2024-02-09T02:29:20.252Z,5.41
2024-02-09T02:32:05.523Z,5.45
2024-02-09T02:34:52.084Z,5.47
2024-02-09T02:37:37.176Z,5.51
2024-02-09T02:40:23.048Z,5.54
2024-02-09T02:42:49.690Z,5.60
2024-02-09T02:45:16.374Z,5.66
2024-02-09T02:48:03.138Z,5.71
2024-02-09T02:50:55.870Z,5.74
2024-02-09T02:53:41.332Z,5.78
2024-02-09T02:56:26.357Z,5.81
2024-02-09T02:59:11.793Z,5.84
2024-02-09T03:01:57.393Z,5.88
2024-02-09T03:04:24.286Z,5.91
2024-02-09T03:07:13.295Z,5.94
2024-02-09T03:09:37.857Z,5.95
2024-02-09T03:12:05.090Z,5.99
2024-02-09T03:14:31.803Z,6.01
2024-02-09T03:16:58.581Z,6.04
2024-02-09T03:19:25.430Z,6.07
2024-02-09T03:21:55.599Z,6.11
2024-02-09T03:24:22.551Z,6.16
2024-02-09T03:26:49.338Z,6.18
2024-02-09T03:29:15.971Z,6.19
2024-02-09T03:31:43.174Z,6.19
2024-02-09T03:34:10.327Z,6.21
2024-02-09T03:36:37.304Z,6.22
2024-02-09T03:39:03.995Z,6.28
2024-02-09T03:41:32.902Z,6.33
2024-02-09T03:44:08.878Z,6.37
2024-02-09T03:46:35.727Z,6.42
2024-02-09T03:49:02.910Z,6.45
2024-02-09T03:51:29.702Z,6.53
2024-02-09T03:53:56.315Z,6.63
2024-02-09T03:56:23.000Z,6.69
2024-02-09T03:58:49.726Z,6.83
2024-02-09T04:01:16.701Z,7.04
2024-02-09T04:03:43.797Z,7.29
2024-02-09T04:06:10.758Z,7.42
2024-02-09T04:08:37.610Z,7.56
2024-02-09T04:11:04.487Z,7.71
2024-02-09T04:13:31.292Z,7.79
2024-02-09T04:16:01.441Z,7.84
2024-02-09T04:18:30.748Z,7.82
2024-02-09T04:20:57.783Z,7.84
2024-02-09T04:23:24.632Z,7.92
2024-02-09T04:25:51.354Z,7.95
2024-02-09T04:28:19.422Z,7.99
2024-02-09T04:30:48.088Z,8.03
2024-02-09T04:33:17.678Z,8.04
2024-02-09T04:35:44.768Z,8.04
2024-02-09T04:38:13.998Z,8.06
2024-02-09T04:40:40.831Z,8.10
2024-02-09T04:43:07.718Z,8.11
2024-02-09T04:45:34.629Z,8.20
2024-02-09T04:48:01.549Z,8.22
2024-02-09T04:50:28.286Z,8.23
2024-02-09T04:52:55.916Z,8.24
2024-02-09T04:55:23.087Z,8.24
2024-02-09T04:57:50.101Z,8.34
2024-02-09T05:00:17.498Z,8.37
2024-02-09T05:02:47.949Z,8.40
2024-02-09T05:05:15.075Z,8.37
2024-02-09T05:07:42.088Z,8.36
2024-02-09T05:10:09.462Z,8.37
2024-02-09T05:12:36.680Z,8.39
2024-02-09T05:15:03.613Z,8.42
2024-02-09T05:17:30.232Z,8.39
2024-02-09T05:19:59.969Z,8.44
2024-02-09T05:22:30.199Z,8.53
2024-02-09T05:24:57.116Z,8.54
2024-02-09T05:27:23.913Z,8.56
2024-02-09T05:29:51.053Z,8.57
2024-02-09T05:32:17.679Z,8.59
2024-02-09T05:34:47.540Z,8.63
2024-02-09T05:37:16.444Z,8.69
2024-02-09T05:39:44.496Z,8.71
2024-02-09T05:42:11.192Z,8.69
2024-02-09T05:44:38.027Z,8.70
2024-02-09T05:47:04.984Z,8.73
2024-02-09T05:49:31.961Z,8.72
2024-02-09T05:51:59.074Z,8.72
2024-02-09T05:54:26.526Z,8.74
2024-02-09T05:56:53.391Z,8.74
2024-02-09T05:59:22.929Z,8.77
2024-02-09T06:01:49.894Z,8.80
2024-02-09T06:04:16.868Z,8.83
2024-02-09T06:06:47.195Z,8.81
2024-02-09T06:09:14.044Z,8.83
2024-02-09T06:11:40.627Z,8.86
2024-02-09T06:14:07.760Z,8.86
2024-02-09T06:16:34.492Z,8.87
2024-02-09T06:19:01.337Z,8.86
2024-02-09T06:21:28.254Z,8.84
2024-02-09T06:23:54.869Z,8.87
2024-02-09T06:26:25.201Z,8.89
2024-02-09T06:28:53.147Z,8.88
2024-02-09T06:31:32.600Z,8.88
2024-02-09T06:34:00.486Z,8.91
2024-02-09T06:36:27.718Z,8.93
2024-02-09T06:38:55.345Z,8.94
2024-02-09T06:41:22.624Z,8.92
2024-02-09T06:43:49.964Z,8.96
2024-02-09T06:46:19.266Z,8.97
2024-02-09T06:48:48.452Z,8.98
2024-02-09T06:51:20.352Z,8.95
2024-02-09T06:53:47.981Z,9.01
2024-02-09T06:56:16.212Z,9.02
2024-02-09T06:58:46.742Z,9.01
2024-02-09T07:01:13.838Z,9.01
2024-02-09T07:03:44.322Z,9.03
2024-02-09T07:06:11.665Z,9.03
2024-02-09T07:08:41.359Z,9.03
2024-02-09T07:11:09.336Z,9.03
2024-02-09T07:13:36.193Z,9.04
2024-02-09T07:16:04.392Z,9.08
2024-02-09T07:18:32.076Z,9.08
2024-02-09T07:20:58.739Z,9.10
2024-02-09T07:23:27.532Z,9.12
2024-02-09T07:25:55.695Z,9.12
2024-02-09T07:28:24.895Z,9.15
2024-02-09T07:30:51.578Z,9.17
2024-02-09T07:33:18.478Z,9.18
2024-02-09T07:35:45.132Z,9.18
2024-02-09T07:38:12.787Z,9.18
2024-02-09T07:40:39.618Z,9.19
2024-02-09T07:43:06.519Z,9.20
2024-02-09T07:45:33.445Z,9.22
2024-02-09T07:48:00.962Z,9.22
2024-02-09T07:50:28.493Z,9.24
2024-02-09T07:52:55.408Z,9.24
2024-02-09T07:55:25.194Z,9.26
2024-02-09T07:57:51.983Z,9.28
2024-02-09T08:00:20.899Z,9.31
2024-02-09T08:02:48.350Z,9.34
2024-02-09T08:05:20.122Z,9.36
2024-02-09T08:07:50.670Z,9.38
2024-02-09T08:10:18.541Z,9.40
2024-02-09T08:12:48.678Z,9.42
2024-02-09T08:15:15.398Z,9.42
2024-02-09T08:17:53.087Z,9.43
2024-02-09T08:20:21.054Z,9.45
2024-02-09T08:22:47.786Z,9.48
2024-02-09T08:25:15.325Z,9.51
2024-02-09T08:27:42.207Z,9.52
2024-02-09T08:30:10.559Z,9.56
2024-02-09T08:32:39.197Z,9.57
2024-02-09T08:35:07.305Z,9.58
2024-02-09T08:37:34.425Z,9.58
2024-02-09T08:40:01.607Z,9.59
2024-02-09T08:42:28.374Z,9.61
2024-02-09T08:44:55.425Z,9.61
2024-02-09T08:47:25.349Z,9.63
2024-02-09T08:49:52.157Z,9.66
2024-02-09T08:52:19.631Z,9.68
2024-02-09T08:54:47.281Z,9.71
2024-02-09T08:57:19.828Z,9.73
2024-02-09T08:59:46.557Z,9.77
2024-02-09T09:02:13.496Z,9.81
2024-02-09T09:04:40.722Z,9.83
2024-02-09T09:07:07.598Z,9.85
2024-02-09T09:09:35.063Z,9.87
2024-02-09T09:12:06.070Z,9.84
2024-02-09T09:14:35.379Z,9.83
2024-02-09T09:17:12.508Z,9.82
2024-02-09T09:19:47.831Z,9.82
2024-02-09T09:22:14.727Z,9.83
2024-02-09T09:24:41.364Z,9.84
2024-02-09T09:27:09.664Z,9.87
2024-02-09T09:29:36.632Z,9.90
2024-02-09T09:32:03.418Z,9.95
2024-02-09T09:34:32.272Z,9.95
2024-02-09T09:36:59.190Z,9.95
2024-02-09T09:39:28.016Z,9.98
2024-02-09T09:41:57.834Z,9.99
2024-02-09T09:44:28.837Z,9.99
2024-02-09T09:46:55.613Z,10.02
2024-02-09T09:49:24.239Z,10.03
2024-02-09T09:51:52.661Z,10.04
2024-02-09T09:54:23.656Z,10.05
2024-02-09T09:56:50.747Z,10.09
2024-02-09T09:59:20.761Z,10.12
2024-02-09T10:01:52.212Z,10.13
2024-02-09T10:04:19.821Z,10.16
2024-02-09T10:06:47.062Z,10.18
2024-02-09T10:09:14.213Z,10.22
2024-02-09T10:11:42.429Z,10.25
2024-02-09T10:14:17.106Z,10.25
2024-02-09T10:16:46.236Z,10.27
2024-02-09T10:19:18.291Z,10.32
2024-02-09T10:21:56.155Z,10.37
2024-02-09T10:24:25.266Z,10.46
2024-02-09T10:26:52.127Z,10.49
2024-02-09T10:29:24.013Z,10.50
2024-02-09T10:31:54.398Z,10.50
2024-02-09T10:34:21.634Z,10.51
2024-02-09T10:36:49.166Z,10.52
2024-02-09T10:39:15.982Z,10.51
2024-02-09T10:41:47.736Z,10.51
2024-02-09T10:44:16.598Z,10.54
2024-02-09T10:46:47.910Z,10.59
2024-02-09T10:49:17.071Z,10.60
2024-02-09T10:51:45.805Z,10.62
2024-02-09T10:54:19.010Z,10.64
2024-02-09T10:56:48.138Z,10.67
2024-02-09T10:59:15.489Z,10.74
2024-02-09T11:01:43.741Z,10.82
2024-02-09T11:04:11.453Z,10.90
2024-02-09T11:06:39.912Z,10.97
2024-02-09T11:09:08.357Z,11.02
2024-02-09T11:11:35.597Z,11.03
2024-02-09T11:14:06.137Z,11.10
2024-02-09T11:16:39.772Z,11.15
2024-02-09T11:19:11.093Z,11.23
2024-02-09T11:21:37.780Z,11.30
2024-02-09T11:24:04.576Z,11.35
2024-02-09T11:26:38.221Z,11.36
2024-02-09T11:29:04.833Z,11.37
2024-02-09T11:31:33.929Z,11.36
2024-02-09T11:34:02.371Z,11.33
2024-02-09T11:36:29.338Z,11.30
2024-02-09T11:38:57.685Z,11.30
2024-02-09T11:41:29.457Z,11.28
2024-02-09T11:43:58.534Z,11.28
2024-02-09T11:46:25.163Z,11.30
2024-02-09T11:48:52.837Z,11.36
2024-02-09T11:51:21.777Z,11.44
2024-02-09T11:53:52.400Z,11.50
2024-02-09T11:56:20.347Z,11.51
2024-02-09T11:58:50.946Z,11.49
2024-02-09T12:01:20.221Z,11.49
2024-02-09T12:03:47.099Z,11.49
2024-02-09T12:06:14.125Z,11.50
2024-02-09T12:08:41.312Z,11.51
2024-02-09T12:11:08.072Z,11.53
2024-02-09T12:13:34.752Z,11.55
2024-02-09T12:16:01.866Z,11.56
2024-02-09T12:18:28.852Z,11.58
2024-02-09T12:20:55.672Z,11.62
2024-02-09T12:23:25.830Z,11.66
2024-02-09T12:25:53.238Z,11.69
2024-02-09T12:28:21.555Z,11.69
2024-02-09T12:30:48.186Z,11.69
2024-02-09T12:33:21.189Z,11.72
2024-02-09T12:35:48.932Z,11.74
2024-02-09T12:38:19.096Z,11.73
2024-02-09T12:40:46.201Z,11.72
2024-02-09T12:43:23.137Z,11.71
2024-02-09T12:45:49.974Z,11.73
2024-02-09T12:48:23.050Z,11.74
2024-02-09T12:50:57.567Z,11.76
2024-02-09T12:53:25.173Z,11.78
2024-02-09T12:55:52.136Z,11.75
2024-02-09T12:58:22.367Z,11.74
2024-02-09T13:00:49.365Z,11.74
2024-02-09T13:03:16.880Z,11.74
2024-02-09T13:05:43.565Z,11.76
2024-02-09T13:08:13.225Z,11.78
2024-02-09T13:10:39.772Z,11.80
2024-02-09T13:13:09.560Z,11.79
2024-02-09T13:15:36.973Z,11.81
2024-02-09T13:18:03.973Z,11.84
2024-02-09T13:20:30.584Z,11.86
2024-02-09T13:22:58.777Z,11.90
2024-02-09T13:25:25.689Z,11.94
2024-02-09T13:27:52.704Z,11.98
2024-02-09T13:30:21.301Z,12.02
2024-02-09T13:32:49.134Z,12.05
2024-02-09T13:35:19.106Z,12.09
2024-02-09T13:37:46.718Z,12.15
2024-02-09T13:40:18.232Z,12.21
2024-02-09T13:42:50.979Z,12.24
2024-02-09T13:45:20.267Z,12.28
2024-02-09T13:47:47.018Z,12.30
2024-02-09T13:50:13.843Z,12.31
2024-02-09T13:52:41.911Z,12.34
2024-02-09T13:55:15.211Z,12.35
2024-02-09T13:57:45.922Z,12.36
2024-02-09T14:00:15.162Z,12.37
2024-02-09T14:02:41.991Z,12.36
2024-02-09T14:05:10.502Z,12.34
2024-02-09T14:07:40.728Z,12.33
2024-02-09T14:10:09.399Z,12.34
2024-02-09T14:12:36.198Z,12.36
2024-02-09T14:15:03.566Z,12.38
2024-02-09T14:17:31.751Z,12.40
2024-02-09T14:19:59.741Z,12.41
2024-02-09T14:22:26.526Z,12.42
2024-02-09T14:24:53.504Z,12.43
2024-02-09T14:27:20.263Z,12.44
2024-02-09T14:29:47.163Z,12.46
2024-02-09T14:32:14.785Z,12.45
2024-02-09T14:34:42.376Z,12.44
2024-02-09T14:37:09.599Z,12.42
2024-02-09T14:39:37.621Z,12.40
2024-02-09T14:42:09.953Z,12.38
2024-02-09T14:44:36.614Z,12.35
2024-02-09T14:47:03.438Z,12.33
2024-02-09T14:49:30.266Z,12.32
2024-02-09T14:51:57.803Z,12.30
2024-02-09T14:54:24.697Z,12.29
2024-02-09T14:56:59.204Z,12.29
2024-02-09T14:59:27.362Z,12.26
2024-02-09T15:01:55.766Z,12.26
2024-02-09T15:04:22.863Z,12.26
2024-02-09T15:06:51.032Z,12.26
2024-02-09T15:09:22.229Z,12.24
2024-02-09T15:11:49.391Z,12.22
2024-02-09T15:14:16.076Z,12.20
2024-02-09T15:16:43.158Z,12.20
2024-02-09T15:19:13.262Z,12.20
2024-02-09T15:21:42.626Z,12.20
2024-02-09T15:24:09.270Z,12.16
2024-02-09T15:26:36.774Z,12.11
2024-02-09T15:29:05.984Z,12.11
2024-02-09T15:31:33.698Z,12.08
2024-02-09T15:34:00.445Z,12.06
2024-02-09T15:36:31.354Z,12.05
2024-02-09T15:38:57.944Z,12.04
2024-02-09T15:41:24.621Z,12.03
2024-02-09T15:43:54.020Z,12.02
2024-02-09T15:46:20.749Z,12.01
2024-02-09T15:48:51.428Z,11.98
2024-02-09T15:51:24.304Z,11.97
2024-02-09T15:53:53.753Z,11.95
2024-02-09T15:56:24.531Z,11.92
2024-02-09T15:58:51.766Z,11.91
2024-02-09T16:01:19.598Z,11.87
2024-02-09T16:03:50.743Z,11.86
2024-02-09T16:06:18.220Z,11.84
2024-02-09T16:08:45.009Z,11.80
2024-02-09T16:11:12.016Z,11.77
2024-02-09T16:13:39.334Z,11.74
2024-02-09T16:16:08.811Z,11.71
2024-02-09T16:18:36.918Z,11.68
2024-02-09T16:21:03.914Z,11.65
2024-02-09T16:23:30.664Z,11.59
2024-02-09T16:26:04.813Z,11.55
2024-02-09T16:28:34.146Z,11.51
2024-02-09T16:31:01.450Z,11.48
2024-02-09T16:33:30.633Z,11.46
2024-02-09T16:35:57.358Z,11.45
2024-02-09T16:38:24.729Z,11.46
2024-02-09T16:40:51.635Z,11.46
2024-02-09T16:43:21.117Z,11.45
2024-02-09T16:45:47.981Z,11.45
2024-02-09T16:48:16.955Z,11.45
2024-02-09T16:50:44.837Z,11.45
2024-02-09T16:53:16.351Z,11.45
2024-02-09T16:55:44.156Z,11.46
2024-02-09T16:58:11.027Z,11.44
2024-02-09T17:00:37.800Z,11.42
2024-02-09T17:03:05.195Z,11.44
2024-02-09T17:05:32.982Z,11.44
2024-02-09T17:08:00.258Z,11.43
2024-02-09T17:10:27.043Z,11.44
2024-02-09T17:12:55.287Z,11.42
2024-02-09T17:15:22.609Z,11.41
2024-02-09T17:17:49.297Z,11.41
2024-02-09T17:20:16.201Z,11.39
2024-02-09T17:22:44.346Z,11.40
2024-02-09T17:25:14.993Z,11.40
2024-02-09T17:27:46.147Z,11.41
2024-02-09T17:30:15.921Z,11.42
2024-02-09T17:32:42.912Z,11.43
2024-02-09T17:35:09.794Z,11.43
2024-02-09T17:37:36.512Z,11.42
2024-02-09T17:40:03.362Z,11.42
2024-02-09T17:42:30.113Z,11.40
2024-02-09T17:44:56.751Z,11.41
2024-02-09T17:47:23.412Z,11.40
2024-02-09T17:49:52.308Z,11.38
2024-02-09T17:52:19.338Z,11.37
2024-02-09T17:54:46.060Z,11.36
2024-02-09T17:57:12.726Z,11.34
2024-02-09T17:59:39.360Z,11.33
2024-02-09T18:02:06.492Z,11.32
2024-02-09T18:04:35.242Z,11.32
2024-02-09T18:07:02.375Z,11.29
2024-02-09T18:09:30.416Z,11.27
2024-02-09T18:11:57.043Z,11.27
2024-02-09T18:14:24.391Z,11.26
2024-02-09T18:16:53.185Z,11.25
2024-02-09T18:19:19.977Z,11.23
2024-02-09T18:21:46.695Z,11.24
2024-02-09T18:24:16.464Z,11.25
2024-02-09T18:26:43.601Z,11.26
2024-02-09T18:29:10.341Z,11.27
2024-02-09T18:31:37.159Z,11.32
2024-02-09T18:34:03.993Z,11.33
2024-02-09T18:36:30.637Z,11.32
2024-02-09T18:38:57.836Z,11.30
2024-02-09T18:41:24.492Z,11.28
2024-02-09T18:43:51.337Z,11.29
2024-02-09T18:46:18.228Z,11.30
2024-02-09T18:48:44.895Z,11.29
2024-02-09T18:51:12.384Z,11.27
2024-02-09T18:53:42.070Z,11.28
2024-02-09T18:56:09.944Z,11.27
2024-02-09T18:58:37.456Z,11.25
2024-02-09T19:01:06.667Z,11.24
2024-02-09T19:03:34.612Z,11.24
2024-02-09T19:06:01.768Z,11.23
2024-02-09T19:08:29.287Z,11.20
2024-02-09T19:10:57.112Z,11.19
2024-02-09T19:13:23.735Z,11.16
2024-02-09T19:15:50.398Z,11.13
2024-02-09T19:18:19.070Z,11.11
2024-02-09T19:20:46.145Z,11.07
2024-02-09T19:23:14.234Z,11.04
2024-02-09T19:25:41.011Z,11.02
2024-02-09T19:28:08.423Z,10.99
2024-02-09T19:30:36.188Z,10.95
2024-02-09T19:33:03.169Z,10.92
2024-02-09T19:35:29.913Z,10.89
2024-02-09T19:37:56.816Z,10.85
2024-02-09T19:40:23.683Z,10.81
2024-02-09T19:42:51.074Z,10.78
2024-02-09T19:45:19.185Z,10.73
2024-02-09T19:47:51.005Z,10.69
2024-02-09T19:50:17.827Z,10.64
2024-02-09T19:52:44.958Z,10.61
2024-02-09T19:55:13.038Z,10.59
2024-02-09T19:57:39.876Z,10.56
2024-02-09T20:00:10.270Z,10.54
2024-02-09T20:02:44.285Z,10.52
2024-02-09T20:05:14.963Z,10.50
2024-02-09T20:07:41.828Z,10.47
2024-02-09T20:10:10.416Z,10.43
2024-02-09T20:12:39.817Z,10.40
2024-02-09T20:15:19.365Z,10.38
2024-02-09T20:17:47.423Z,10.36
2024-02-09T20:20:21.124Z,10.34
2024-02-09T20:22:52.520Z,10.34
2024-02-09T20:25:19.767Z,10.35
2024-02-09T20:27:46.847Z,10.36
2024-02-09T20:30:15.577Z,10.34
2024-02-09T20:32:43.695Z,10.32
2024-02-09T20:35:13.076Z,10.31
2024-02-09T20:37:41.655Z,10.28
2024-02-09T20:40:10.328Z,10.26
2024-02-09T20:42:38.136Z,10.21
2024-02-09T20:45:05.994Z,10.18
2024-02-09T20:47:36.020Z,10.16
2024-02-09T20:50:04.117Z,10.17
2024-02-09T20:52:31.636Z,10.18
2024-02-09T20:54:58.698Z,10.20
2024-02-09T20:57:25.349Z,10.23
2024-02-09T20:59:52.328Z,10.23
2024-02-09T21:02:22.706Z,10.23
2024-02-09T21:04:50.513Z,10.23
2024-02-09T21:07:20.254Z,10.20
2024-02-09T21:09:47.269Z,10.18
2024-02-09T21:12:20.373Z,10.14
2024-02-09T21:14:48.338Z,10.11
2024-02-09T21:17:15.419Z,10.09
2024-02-09T21:19:43.923Z,10.06
2024-02-09T21:22:10.653Z,10.04
2024-02-09T21:24:37.377Z,10.03
2024-02-09T21:27:04.133Z,10.02
2024-02-09T21:29:30.699Z,9.99
2024-02-09T21:31:59.789Z,9.98
2024-02-09T21:34:28.120Z,9.96
2024-02-09T21:36:54.811Z,9.94
2024-02-09T21:39:21.838Z,9.94
2024-02-09T21:41:48.586Z,9.93
2024-02-09T21:44:16.260Z,9.89
2024-02-09T21:46:43.006Z,9.86
2024-02-09T21:49:10.136Z,9.83
2024-02-09T21:51:37.300Z,9.81
2024-02-09T21:54:07.895Z,9.78
2024-02-09T21:56:35.040Z,9.76
2024-02-09T21:59:02.115Z,9.73
2024-02-09T22:01:29.987Z,9.72
2024-02-09T22:03:59.170Z,9.71
2024-02-09T22:06:26.114Z,9.71
2024-02-09T22:08:52.715Z,9.72
2024-02-09T22:11:19.602Z,9.72
2024-02-09T22:13:47.409Z,9.71
2024-02-09T22:16:14.244Z,9.72
2024-02-09T22:18:43.140Z,9.75
2024-02-09T22:21:10.462Z,9.76
2024-02-09T22:23:45.821Z,9.77
2024-02-09T22:26:14.891Z,9.78
2024-02-09T22:28:41.730Z,9.80
2024-02-09T22:31:11.428Z,9.82
2024-02-09T22:33:38.155Z,9.85
2024-02-09T22:36:05.225Z,9.87
2024-02-09T22:38:32.619Z,9.89
2024-02-09T22:40:59.815Z,9.91
2024-02-09T22:43:27.346Z,9.93
2024-02-09T22:45:55.447Z,9.95
2024-02-09T22:48:22.868Z,9.97
2024-02-09T22:50:49.690Z,9.98
2024-02-09T22:53:16.333Z,9.99
2024-02-09T22:55:42.965Z,9.98
2024-02-09T22:58:13.651Z,9.98
2024-02-09T23:00:40.410Z,9.96
2024-02-09T23:03:09.633Z,9.95
2024-02-09T23:05:37.949Z,9.93
2024-02-09T23:08:05.183Z,9.91
2024-02-09T23:10:34.653Z,9.90
2024-02-09T23:13:02.231Z,9.90
2024-02-09T23:15:31.870Z,9.89
2024-02-09T23:17:58.707Z,9.89
2024-02-09T23:20:25.572Z,9.90
2024-02-09T23:22:54.205Z,9.91
2024-02-09T23:25:22.506Z,9.93
2024-02-09T23:27:51.479Z,9.93
2024-02-09T23:30:18.459Z,9.94
2024-02-09T23:32:45.240Z,9.95
2024-02-09T23:35:13.552Z,9.97
2024-02-09T23:37:43.194Z,10.01
2024-02-09T23:40:11.584Z,10.02
2024-02-09T23:42:39.619Z,10.04
2024-02-09T23:45:06.785Z,10.03
2024-02-09T23:47:35.328Z,10.05
2024-02-09T23:50:06.053Z,10.05
2024-02-09T23:52:32.763Z,10.05
2024-02-09T23:55:00.259Z,10.05
2024-02-09T23:57:26.898Z,10.04
2024-02-09T23:59:53.493Z,10.04
